Time;durP1;ratioP1;P1;durP2;ratioP2;P2;SDS_P1;SDS_P2;PMS_P1;PMS_P2;Temp;Humidity;BMP_temperature;BMP_pressure;BME280_temperature;BME280_humidity;BME280_pressure;Samples;Min_cycle;Max_cycle;Signal;HPM_P1;HPM_P2
2021/12/09 00:02:56;;;;;;;20.83;10.15;;;2.50;99.90;;;;;;12434949;28;20053;-92
2021/12/09 00:09:05;;;;;;;15.05;10.15;;;2.60;99.90;;;;;;12474643;28;20079;-92
2021/12/09 00:15:08;;;;;;;19.40;10.00;;;2.60;99.90;;;;;;12461064;28;20076;-91
2021/12/09 00:21:10;;;;;;;17.23;8.55;;;2.60;99.90;;;;;;12455267;28;20049;-93
2021/12/09 00:27:12;;;;;;;14.25;7.07;;;2.60;99.90;;;;;;12462223;28;20056;-91
2021/12/09 00:33:16;;;;;;;20.13;10.02;;;2.80;99.90;;;;;;12477357;28;21527;-92
2021/12/09 00:39:18;;;;;;;16.77;9.00;;;2.90;99.90;;;;;;12471294;28;20075;-93
2021/12/09 00:45:21;;;;;;;15.20;10.02;;;2.90;99.90;;;;;;12494393;28;20045;-92
2021/12/09 00:51:24;;;;;;;15.63;8.82;;;2.90;99.90;;;;;;12499057;28;20045;-93
2021/12/09 00:57:27;;;;;;;18.30;9.88;;;2.80;99.90;;;;;;12501904;28;20056;-92
2021/12/09 01:03:29;;;;;;;17.02;9.02;;;2.70;99.90;;;;;;12492573;28;20064;-92
2021/12/09 01:09:31;;;;;;;18.17;10.68;;;2.50;99.90;;;;;;12475181;28;20357;-93
2021/12/09 01:15:33;;;;;;;19.52;11.48;;;2.50;99.90;;;;;;12464842;28;20053;-92
2021/12/09 01:21:36;;;;;;;17.27;10.73;;;2.40;99.90;;;;;;12482600;28;20146;-92
2021/12/09 01:27:41;;;;;;;19.60;10.63;;;2.40;99.90;;;;;;12474898;28;20357;-92
2021/12/09 01:33:44;;;;;;;17.50;10.23;;;2.30;99.90;;;;;;12515143;28;20834;-93
2021/12/09 01:39:46;;;;;;;17.85;10.25;;;2.30;99.90;;;;;;12482845;28;20523;-93
2021/12/09 01:45:48;;;;;;;17.45;10.18;;;2.30;99.90;;;;;;12464695;28;20164;-93
2021/12/09 01:51:51;;;;;;;17.98;10.00;;;2.20;99.90;;;;;;12462292;28;20092;-92
2021/12/09 01:57:53;;;;;;;12.57;8.30;;;2.20;99.90;;;;;;12459825;28;20057;-93
2021/12/09 02:03:56;;;;;;;17.08;9.35;;;2.40;99.90;;;;;;12482446;28;20112;-92
2021/12/09 02:09:58;;;;;;;16.65;8.80;;;2.50;99.90;;;;;;12461767;28;20132;-92
2021/12/09 02:16:00;;;;;;;18.75;9.50;;;2.60;99.90;;;;;;12461479;28;20045;-92
2021/12/09 02:22:03;;;;;;;15.93;8.77;;;2.60;99.90;;;;;;12462284;28;20486;-92
2021/12/09 02:28:05;;;;;;;14.73;8.23;;;2.60;99.90;;;;;;12474954;28;20038;-93
2021/12/09 02:34:08;;;;;;;16.10;8.95;;;2.60;99.90;;;;;;12479940;28;20048;-93
2021/12/09 02:40:12;;;;;;;14.90;8.20;;;2.70;99.90;;;;;;12458013;28;20070;-93
2021/12/09 02:46:16;;;;;;;16.58;9.20;;;2.70;99.90;;;;;;12473806;28;20090;-92
2021/12/09 02:52:19;;;;;;;22.55;11.40;;;2.80;99.90;;;;;;12465389;28;20264;-92
2021/12/09 02:58:21;;;;;;;16.98;9.73;;;2.70;99.90;;;;;;12462443;28;20295;-92
2021/12/09 03:04:25;;;;;;;17.15;8.60;;;2.50;99.90;;;;;;12460274;28;20160;-91
2021/12/09 03:10:27;;;;;;;17.07;7.27;;;2.60;99.90;;;;;;12478982;28;20422;-93
2021/12/09 03:16:30;;;;;;;18.65;7.65;;;2.80;99.90;;;;;;12467384;28;20132;-92
2021/12/09 03:22:32;;;;;;;19.00;7.32;;;2.90;99.90;;;;;;12465612;28;20049;-91
2021/12/09 03:28:34;;;;;;;12.75;6.40;;;3.10;99.90;;;;;;12468719;28;20041;-91
2021/12/09 03:34:38;;;;;;;14.05;6.60;;;3.20;99.90;;;;;;12464289;28;20041;-92
2021/12/09 03:40:40;;;;;;;16.65;6.28;;;3.20;99.90;;;;;;12479825;28;20047;-92
2021/12/09 03:46:42;;;;;;;11.18;5.82;;;3.30;99.90;;;;;;12469638;28;20144;-93
2021/12/09 03:52:44;;;;;;;17.02;6.68;;;3.30;99.90;;;;;;12467042;28;20041;-91
2021/12/09 03:58:47;;;;;;;14.23;8.88;;;3.30;99.90;;;;;;12470749;28;20325;-93
2021/12/09 04:04:49;;;;;;;14.98;9.48;;;3.30;99.90;;;;;;12467930;28;20148;-92
2021/12/09 04:10:51;;;;;;;14.95;8.63;;;3.50;99.90;;;;;;12464753;28;20140;-92
2021/12/09 04:16:53;;;;;;;14.65;9.13;;;3.30;99.90;;;;;;12462528;28;20123;-93
2021/12/09 04:22:55;;;;;;;15.10;9.98;;;3.00;99.90;;;;;;12470531;28;20175;-93
2021/12/09 04:28:57;;;;;;;16.50;6.90;;;2.90;99.90;;;;;;12468784;28;20080;-93
2021/12/09 04:35:00;;;;;;;15.38;8.85;;;2.90;99.90;;;;;;12464338;28;20458;-93
2021/12/09 04:41:03;;;;;;;14.90;7.13;;;2.80;99.90;;;;;;12476930;28;20503;-91
2021/12/09 04:47:05;;;;;;;14.90;8.23;;;2.70;99.90;;;;;;12463884;28;20581;-91
2021/12/09 04:53:07;;;;;;;13.57;7.22;;;2.70;99.90;;;;;;12465560;28;20049;-93
2021/12/09 04:59:09;;;;;;;14.13;7.38;;;2.70;99.90;;;;;;12461613;28;20515;-92
2021/12/09 05:05:11;;;;;;;16.65;7.53;;;2.70;99.90;;;;;;12462451;28;20135;-92
2021/12/09 05:11:48;;;;;;;16.25;7.20;;;2.60;99.90;;;;;;12461607;28;20053;-92
2021/12/09 05:17:51;;;;;;;19.30;7.72;;;2.70;99.90;;;;;;12464518;28;20124;-94
2021/12/09 05:23:53;;;;;;;18.25;7.45;;;2.70;99.90;;;;;;12460326;28;20419;-91
2021/12/09 05:30:06;;;;;;;16.95;7.18;;;2.60;99.90;;;;;;12460706;28;20084;-92
2021/12/09 05:36:09;;;;;;;12.75;6.85;;;2.50;99.90;;;;;;12471620;28;20045;-93
2021/12/09 05:42:12;;;;;;;18.45;8.77;;;2.50;99.90;;;;;;12462730;28;20128;-93
2021/12/09 05:48:15;;;;;;;14.43;7.72;;;2.60;99.90;;;;;;12460414;28;20053;-91
2021/12/09 05:54:17;;;;;;;16.65;7.45;;;2.40;99.90;;;;;;12470808;28;20163;-93
2021/12/09 06:00:20;;;;;;;16.65;7.65;;;2.50;99.90;;;;;;12475250;28;20061;-93
2021/12/09 06:06:22;;;;;;;16.77;7.93;;;2.50;99.90;;;;;;12460788;28;20572;-92
2021/12/09 06:12:24;;;;;;;15.98;8.15;;;2.50;99.90;;;;;;12477382;28;20057;-93
2021/12/09 06:18:27;;;;;;;15.35;7.53;;;2.50;99.90;;;;;;12479581;28;20053;-93
2021/12/09 06:24:29;;;;;;;13.90;7.50;;;2.40;99.90;;;;;;12483567;28;20875;-91
2021/12/09 06:30:31;;;;;;;15.75;7.82;;;2.30;99.90;;;;;;12485811;28;20053;-91
2021/12/09 06:36:33;;;;;;;17.20;7.97;;;2.30;99.90;;;;;;12470947;28;20441;-93
2021/12/09 06:42:35;;;;;;;22.52;8.27;;;2.40;99.90;;;;;;12475790;28;20156;-92
2021/12/09 06:48:38;;;;;;;16.65;8.25;;;2.40;99.90;;;;;;12459606;28;20065;-91
2021/12/09 06:54:41;;;;;;;19.70;8.27;;;2.40;99.90;;;;;;12428544;28;20113;-93
2021/12/09 07:00:46;;;;;;;13.75;7.20;;;2.20;99.90;;;;;;12419004;28;20824;-91
2021/12/09 07:06:49;;;;;;;16.67;7.18;;;2.00;99.90;;;;;;12418606;28;20057;-92
2021/12/09 07:12:51;;;;;;;18.70;7.65;;;2.00;99.90;;;;;;12444997;28;20046;-92
2021/12/09 07:18:54;;;;;;;16.23;8.00;;;2.00;99.90;;;;;;12441534;28;20433;-92
2021/12/09 07:24:56;;;;;;;24.55;8.07;;;2.00;99.90;;;;;;12440975;28;20133;-91
2021/12/09 07:30:58;;;;;;;26.55;10.50;;;2.10;99.90;;;;;;12426701;28;20136;-90
2021/12/09 07:37:04;;;;;;;18.08;8.93;;;2.10;99.90;;;;;;12422096;28;20464;-93
2021/12/09 07:43:06;;;;;;;19.00;9.35;;;2.10;99.90;;;;;;12422349;28;20660;-91
2021/12/09 07:49:08;;;;;;;19.40;9.25;;;2.20;99.90;;;;;;12439293;28;20860;-91
2021/12/09 07:55:11;;;;;;;22.42;8.40;;;2.20;99.90;;;;;;12472654;28;20136;-92
2021/12/09 08:01:13;;;;;;;21.17;9.07;;;2.20;99.90;;;;;;12473163;28;20579;-92
2021/12/09 08:07:16;;;;;;;23.35;9.07;;;2.20;99.90;;;;;;12468290;28;20037;-92
2021/12/09 08:13:23;;;;;;;18.65;8.90;;;2.20;99.90;;;;;;12483086;28;20099;-93
2021/12/09 08:19:25;;;;;;;19.27;8.75;;;2.40;99.90;;;;;;12471592;28;20049;-92
2021/12/09 08:25:28;;;;;;;19.65;9.25;;;2.60;99.90;;;;;;12506603;28;20069;-92
2021/12/09 08:31:33;;;;;;;19.23;8.43;;;2.70;99.90;;;;;;12494239;28;20136;-93
2021/12/09 08:37:46;;;;;;;18.30;8.13;;;2.80;99.90;;;;;;12489316;28;20037;-92
2021/12/09 08:43:48;;;;;;;23.63;9.00;;;2.90;99.90;;;;;;12477680;28;20440;-93
2021/12/09 08:49:50;;;;;;;18.48;7.85;;;2.90;99.90;;;;;;12473857;28;20579;-92
2021/12/09 08:55:53;;;;;;;15.45;8.23;;;2.90;99.90;;;;;;12467306;28;20059;-91
2021/12/09 09:01:55;;;;;;;22.75;8.75;;;2.90;99.90;;;;;;12468413;28;20060;-93
2021/12/09 09:07:58;;;;;;;16.52;8.10;;;3.00;99.90;;;;;;12486452;28;20124;-92
2021/12/09 09:14:00;;;;;;;18.85;8.50;;;3.00;99.90;;;;;;12515020;28;20068;-93
2021/12/09 09:20:05;;;;;;;20.23;8.23;;;3.10;99.90;;;;;;12502051;28;20068;-92
2021/12/09 09:26:07;;;;;;;19.52;8.43;;;3.30;99.90;;;;;;12505435;28;20096;-92
2021/12/09 09:32:13;;;;;;;19.27;8.40;;;3.40;99.90;;;;;;12450186;28;20067;-91
2021/12/09 09:38:17;;;;;;;15.48;7.60;;;3.40;99.90;;;;;;12464675;28;20053;-93
2021/12/09 09:44:22;;;;;;;19.30;7.55;;;3.40;99.90;;;;;;12477231;28;20156;-90
2021/12/09 09:50:25;;;;;;;17.33;7.22;;;3.50;99.90;;;;;;12468727;28;20057;-93
2021/12/09 09:56:29;;;;;;;17.55;7.55;;;3.60;99.90;;;;;;12458047;28;20096;-93
2021/12/09 10:02:31;;;;;;;15.65;7.53;;;3.60;99.90;;;;;;12460823;28;20405;-92
2021/12/09 10:08:35;;;;;;;14.02;6.78;;;3.70;99.90;;;;;;12463213;28;20397;-92
2021/12/09 10:14:37;;;;;;;14.60;6.88;;;3.60;99.90;;;;;;12462430;28;20474;-90
2021/12/09 10:20:52;;;;;;;21.17;7.00;;;3.60;99.90;;;;;;12470719;28;20101;-92
2021/12/09 10:26:54;;;;;;;18.50;6.85;;;3.60;99.90;;;;;;12464816;28;20814;-92
2021/12/09 10:33:02;;;;;;;20.98;5.82;;;3.80;99.90;;;;;;12462287;28;20046;-91
2021/12/09 10:39:30;;;;;;;17.50;5.80;;;4.10;99.90;;;;;;12457800;28;20274;-90
2021/12/09 10:45:39;;;;;;;16.10;5.43;;;4.30;99.90;;;;;;12453643;28;20088;-91
2021/12/09 10:51:46;;;;;;;16.70;5.18;;;4.40;99.90;;;;;;12460888;28;20347;-91
2021/12/09 10:58:07;;;;;;;11.23;4.97;;;4.60;99.90;;;;;;12486126;28;20052;-92
2021/12/09 11:04:23;;;;;;;15.45;5.55;;;4.70;99.90;;;;;;12475497;28;20050;-92
2021/12/09 11:10:26;;;;;;;15.77;4.80;;;4.80;99.90;;;;;;12492705;28;20060;-91
2021/12/09 11:16:39;;;;;;;14.50;5.40;;;4.90;99.90;;;;;;12467204;28;20141;-92
2021/12/09 11:22:44;;;;;;;12.27;4.93;;;4.90;99.90;;;;;;12474341;28;20426;-91
2021/12/09 11:29:01;;;;;;;18.65;5.07;;;4.80;99.90;;;;;;12485155;28;20102;-91
2021/12/09 11:35:26;;;;;;;13.27;4.72;;;4.80;99.90;;;;;;12498561;28;20163;-91
2021/12/09 11:41:34;;;;;;;13.80;4.47;;;5.00;99.90;;;;;;12499837;28;20048;-92
2021/12/09 11:47:41;;;;;;;15.10;4.88;;;5.20;99.90;;;;;;12519193;28;20730;-91
2021/12/09 11:53:55;;;;;;;14.60;4.32;;;5.30;99.90;;;;;;12495717;28;20651;-90
2021/12/09 12:13:30;;;;;;;17.08;5.63;;;4.80;99.90;;;;;;12484893;28;20038;-93
2021/12/09 12:19:51;;;;;;;19.10;5.13;;;4.50;99.90;;;;;;12463250;28;20388;-91
2021/12/09 12:44:28;;;;;;;14.00;6.30;;;4.80;99.90;;;;;;12477750;28;20045;-90
2021/12/09 12:50:31;;;;;;;11.80;5.13;;;4.80;99.90;;;;;;12464220;28;20512;-91
2021/12/09 12:56:54;;;;;;;12.73;6.13;;;4.80;99.90;;;;;;12465518;28;20595;-89
2021/12/09 13:09:24;;;;;;;16.80;6.45;;;5.00;99.90;;;;;;12478172;28;20049;-92
2021/12/09 13:15:33;;;;;;;17.75;6.35;;;5.10;99.90;;;;;;12471171;28;20053;-91
2021/12/09 13:21:43;;;;;;;14.80;6.38;;;5.00;99.90;;;;;;12461728;28;20045;-91
2021/12/09 13:28:04;;;;;;;15.80;6.40;;;5.00;99.90;;;;;;12473658;28;20101;-90
2021/12/09 13:34:15;;;;;;;17.65;7.97;;;4.90;99.90;;;;;;12497894;28;20129;-91
2021/12/09 13:45:45;;;;;;;17.88;8.98;;;4.90;99.90;;;;;;12459962;28;22489;-91
2021/12/09 13:47:06;;;;;;;20.42;9.48;;;4.70;99.90;;;;;;12478032;28;20055;-91
2021/12/09 13:59:19;;;;;;;19.42;9.48;;;4.50;99.90;;;;;;12480270;28;20472;-91
2021/12/09 14:05:23;;;;;;;19.58;9.55;;;4.40;99.90;;;;;;12478311;28;20042;-90
2021/12/09 14:11:36;;;;;;;19.55;8.18;;;4.30;99.90;;;;;;12484324;28;20421;-90
2021/12/09 14:17:41;;;;;;;17.73;8.23;;;4.30;99.90;;;;;;12477719;28;20603;-89
2021/12/09 14:23:43;;;;;;;13.02;7.38;;;4.20;99.90;;;;;;12460351;28;20045;-90
2021/12/09 14:29:49;;;;;;;9.70;6.97;;;4.10;99.90;;;;;;12444365;28;20045;-91
2021/12/09 14:36:05;;;;;;;16.20;7.85;;;4.20;99.90;;;;;;12466372;28;20569;-90
2021/12/09 14:42:25;;;;;;;17.98;6.90;;;4.10;99.90;;;;;;12473392;28;20053;-91
2021/12/09 14:48:33;;;;;;;14.50;7.57;;;4.10;99.90;;;;;;12466878;28;20041;-91
2021/12/09 14:54:37;;;;;;;13.95;6.20;;;4.10;99.90;;;;;;12484924;28;20099;-90
2021/12/09 15:00:49;;;;;;;15.32;6.13;;;4.00;99.90;;;;;;12476521;28;20061;-89
2021/12/09 15:06:59;;;;;;;13.07;5.50;;;4.00;99.90;;;;;;12473343;28;20057;-90
2021/12/09 15:13:03;;;;;;;15.10;5.57;;;4.00;99.90;;;;;;12469087;28;20391;-91
2021/12/09 15:19:17;;;;;;;10.43;5.05;;;4.00;99.90;;;;;;12473254;28;20045;-89
2021/12/09 15:25:20;;;;;;;10.80;5.20;;;4.00;99.90;;;;;;12472352;28;20148;-89
2021/12/09 15:31:22;;;;;;;13.10;6.07;;;4.00;99.90;;;;;;12459004;28;20046;-91
2021/12/09 15:37:26;;;;;;;17.30;5.75;;;4.00;99.90;;;;;;12468857;28;20091;-91
2021/12/09 15:43:29;;;;;;;14.85;6.15;;;4.00;99.90;;;;;;12474837;28;20049;-89
2021/12/09 15:49:37;;;;;;;14.55;6.80;;;4.00;99.90;;;;;;12463133;28;20049;-89
2021/12/09 15:55:41;;;;;;;15.27;6.28;;;4.00;99.90;;;;;;12471253;28;20064;-90
2021/12/09 16:01:45;;;;;;;8.35;5.20;;;4.00;99.90;;;;;;12477234;28;20052;-89
2021/12/09 16:07:48;;;;;;;10.20;5.05;;;4.00;99.90;;;;;;12468133;28;20053;-91
2021/12/09 16:13:56;;;;;;;10.27;4.57;;;4.00;99.90;;;;;;12459997;28;20522;-90
2021/12/09 16:20:03;;;;;;;10.85;4.50;;;4.00;99.90;;;;;;12466703;28;20658;-90
2021/12/09 16:26:06;;;;;;;10.18;4.55;;;4.00;99.90;;;;;;12457009;28;20056;-89
2021/12/09 16:32:09;;;;;;;12.10;4.60;;;4.00;99.90;;;;;;12459806;28;20047;-90
2021/12/09 16:38:12;;;;;;;7.30;4.32;;;4.00;99.90;;;;;;12459205;28;20053;-91
2021/12/09 16:44:15;;;;;;;10.60;4.35;;;4.00;99.90;;;;;;12461635;28;20045;-92
2021/12/09 16:50:25;;;;;;;12.50;4.47;;;4.00;99.90;;;;;;12463322;28;20884;-90
2021/12/09 17:02:37;;;;;;;10.70;4.35;;;4.00;99.90;;;;;;12477083;28;20047;-89
2021/12/09 17:08:39;;;;;;;10.43;4.07;;;4.00;99.90;;;;;;12468730;28;20046;-90
2021/12/09 17:14:42;;;;;;;10.65;3.75;;;3.90;99.90;;;;;;12460318;28;20048;-91
2021/12/09 17:20:44;;;;;;;6.60;3.35;;;3.90;99.90;;;;;;12476696;28;20037;-91
2021/12/09 17:26:49;;;;;;;12.77;3.67;;;3.90;99.90;;;;;;12463838;28;20055;-91
2021/12/09 17:32:55;;;;;;;9.30;2.90;;;3.70;99.90;;;;;;12466158;28;20771;-91
2021/12/09 17:38:57;;;;;;;13.10;3.50;;;3.70;99.90;;;;;;12468402;28;20068;-91
2021/12/09 17:44:59;;;;;;;11.68;3.95;;;3.60;99.90;;;;;;12477237;28;20098;-91
2021/12/09 17:51:03;;;;;;;10.30;4.20;;;3.60;99.90;;;;;;12458151;28;20160;-90
2021/12/09 17:57:07;;;;;;;12.43;3.63;;;3.50;99.90;;;;;;12466895;28;20053;-90
2021/12/09 18:03:09;;;;;;;13.23;3.45;;;3.50;99.90;;;;;;12465822;28;20054;-91
2021/12/09 18:09:11;;;;;;;11.00;3.60;;;3.50;99.90;;;;;;12458311;28;20041;-90
2021/12/09 18:15:17;;;;;;;9.90;2.93;;;3.60;99.90;;;;;;12480450;28;20063;-90
2021/12/09 18:21:19;;;;;;;11.05;3.13;;;3.50;99.90;;;;;;12467371;28;20753;-89
2021/12/09 18:27:21;;;;;;;10.73;3.30;;;3.50;99.90;;;;;;12476097;28;20148;-89
2021/12/09 18:33:25;;;;;;;13.43;3.33;;;3.50;99.90;;;;;;12469152;28;20118;-91
2021/12/09 18:39:31;;;;;;;9.80;2.80;;;3.60;99.90;;;;;;12482497;28;20191;-90
2021/12/09 18:45:33;;;;;;;9.73;2.70;;;3.60;99.90;;;;;;12473928;28;20099;-91
2021/12/09 18:51:36;;;;;;;10.80;2.67;;;3.60;99.90;;;;;;12482967;28;20132;-89
2021/12/09 18:57:38;;;;;;;6.47;2.35;;;3.60;99.90;;;;;;12466364;28;20045;-92
2021/12/09 19:03:41;;;;;;;5.63;2.50;;;3.50;99.90;;;;;;12483922;28;20045;-90
2021/12/09 19:09:43;;;;;;;8.48;2.35;;;3.40;99.90;;;;;;12473402;28;20187;-90
2021/12/09 19:15:47;;;;;;;6.35;2.53;;;3.40;99.90;;;;;;12469652;28;20478;-92
2021/12/09 19:21:49;;;;;;;8.82;3.03;;;3.40;99.90;;;;;;12466526;28;20051;-90
2021/12/09 19:27:55;;;;;;;7.90;3.20;;;3.40;99.90;;;;;;12489334;28;20049;-91
2021/12/09 19:33:58;;;;;;;7.05;3.47;;;3.40;99.90;;;;;;12482608;28;20059;-89
2021/12/09 19:40:05;;;;;;;6.63;2.58;;;3.50;99.90;;;;;;12468504;28;20059;-90
2021/12/09 19:46:08;;;;;;;6.13;2.72;;;3.50;99.90;;;;;;12465777;28;20061;-92
2021/12/09 19:52:10;;;;;;;11.15;3.60;;;3.50;99.90;;;;;;12468493;28;20060;-90
2021/12/09 19:58:12;;;;;;;6.18;2.53;;;3.40;99.90;;;;;;12468404;28;20045;-91
2021/12/09 20:04:17;;;;;;;6.65;2.70;;;3.40;99.90;;;;;;12468478;28;20056;-90
2021/12/09 20:10:29;;;;;;;7.00;2.90;;;3.40;99.90;;;;;;12468094;28;20057;-92
2021/12/09 20:16:32;;;;;;;6.53;2.92;;;3.40;99.90;;;;;;12477209;28;20052;-91
2021/12/09 20:22:35;;;;;;;6.65;3.25;;;3.40;99.90;;;;;;12464978;28;20646;-89
2021/12/09 20:28:39;;;;;;;;;;;3.40;99.90;;;;;;12462489;28;20048;-91
2021/12/09 20:34:42;;;;;;;6.00;2.92;;;3.40;99.90;;;;;;12476941;28;19929;-91
2021/12/09 20:40:45;;;;;;;9.60;3.17;;;3.50;99.90;;;;;;12465390;28;20055;-91
2021/12/09 20:46:47;;;;;;;9.57;3.10;;;3.50;99.90;;;;;;12466510;28;20087;-91
2021/12/09 20:52:49;;;;;;;7.88;3.00;;;3.40;99.90;;;;;;12486699;28;20044;-90
2021/12/09 20:58:58;;;;;;;7.05;2.97;;;3.50;99.90;;;;;;12507424;28;20056;-92
2021/12/09 21:05:00;;;;;;;7.07;3.30;;;3.50;99.90;;;;;;12462198;28;20346;-90
2021/12/09 21:11:04;;;;;;;8.25;2.80;;;3.40;99.90;;;;;;12477612;28;20118;-92
2021/12/09 21:17:06;;;;;;;6.68;3.20;;;3.50;99.90;;;;;;12468004;28;20053;-91
2021/12/09 21:23:11;;;;;;;6.95;3.10;;;3.40;99.90;;;;;;12460388;28;20045;-90
2021/12/09 21:29:19;;;;;;;6.38;3.53;;;3.40;99.90;;;;;;12472482;28;20168;-91
2021/12/09 21:35:21;;;;;;;8.10;3.03;;;3.40;99.90;;;;;;12461206;28;20145;-90
2021/12/09 21:41:23;;;;;;;9.65;2.95;;;3.30;99.90;;;;;;12457607;28;20040;-90
2021/12/09 21:47:25;;;;;;;8.85;3.40;;;3.20;99.90;;;;;;12467551;28;20059;-90
2021/12/09 21:53:27;;;;;;;10.18;3.85;;;3.10;99.90;;;;;;12459994;28;20049;-92
2021/12/09 21:59:32;;;;;;;9.98;4.15;;;3.00;99.90;;;;;;12464483;28;20048;-90
2021/12/09 22:05:34;;;;;;;;;;;3.00;99.90;;;;;;12467524;28;20825;-90
2021/12/09 22:11:36;;;;;;;9.95;3.95;;;2.80;99.90;;;;;;12461116;28;20342;-90
2021/12/09 22:17:39;;;;;;;10.27;4.10;;;2.90;99.90;;;;;;12479079;28;20095;-91
2021/12/09 22:23:40;;;;;;;8.70;4.45;;;2.70;99.90;;;;;;12462560;28;20639;-91
2021/12/09 22:29:43;;;;;;;9.82;4.45;;;2.80;99.90;;;;;;12476836;28;20053;-91
2021/12/09 22:35:45;;;;;;;8.20;4.28;;;2.70;99.90;;;;;;12475410;28;20048;-89
2021/12/09 22:41:47;;;;;;;9.35;4.65;;;2.70;99.90;;;;;;12494001;28;20414;-91
2021/12/09 22:47:49;;;;;;;8.52;4.45;;;2.90;99.90;;;;;;12474500;28;20147;-91
2021/12/09 22:53:53;;;;;;;7.43;4.43;;;3.00;99.90;;;;;;12460835;28;20425;-91
2021/12/09 22:59:55;;;;;;;8.85;4.38;;;3.00;99.90;;;;;;12457983;28;20060;-91
2021/12/09 23:06:04;;;;;;;9.38;4.72;;;3.00;99.90;;;;;;12464832;28;20111;-90
2021/12/09 23:12:07;;;;;;;8.85;4.85;;;3.00;99.90;;;;;;12468140;28;20541;-91
2021/12/09 23:18:13;;;;;;;8.68;4.88;;;3.10;99.90;;;;;;12466647;28;20715;-91
2021/12/09 23:24:16;;;;;;;9.30;4.88;;;3.10;99.90;;;;;;12467808;28;20080;-92
2021/12/09 23:30:18;;;;;;;11.15;5.50;;;3.20;99.90;;;;;;12464650;28;20088;-90
2021/12/09 23:36:22;;;;;;;8.70;5.13;;;3.20;99.90;;;;;;12482816;28;20362;-90
2021/12/09 23:42:24;;;;;;;7.45;4.75;;;3.20;99.90;;;;;;12467173;28;20053;-90
2021/12/09 23:48:28;;;;;;;8.23;5.05;;;3.30;99.90;;;;;;12466278;28;20111;-91
2021/12/09 23:54:30;;;;;;;8.17;4.63;;;3.30;99.90;;;;;;12470342;28;20041;-88
